createdAt,value
2017-09-11T00:01:16.390Z,87.40
2017-09-11T00:03:42.755Z,87.50
2017-09-11T00:06:10.459Z,87.20
2017-09-11T00:08:38.183Z,87.20
2017-09-11T00:11:05.411Z,87.20
2017-09-11T00:13:33.013Z,87.60
2017-09-11T00:16:00.725Z,88.00
2017-09-11T00:18:27.892Z,87.70
2017-09-11T00:20:55.912Z,88.30
2017-09-11T00:23:22.866Z,88.40
2017-09-11T00:25:49.268Z,88.10
2017-09-11T00:28:16.288Z,87.90
2017-09-11T00:30:43.494Z,88.00
2017-09-11T00:33:10.461Z,87.90
2017-09-11T00:35:38.064Z,87.40
2017-09-11T00:38:05.376Z,87.40
2017-09-11T00:40:31.746Z,87.40
2017-09-11T00:43:01.550Z,87.30
2017-09-11T00:45:28.653Z,87.20
2017-09-11T00:47:55.023Z,86.80
2017-09-11T00:50:21.390Z,86.60
2017-09-11T00:52:47.830Z,86.60
2017-09-11T00:55:14.917Z,86.80
2017-09-11T00:57:41.951Z,86.80
2017-09-11T01:00:10.296Z,87.70
2017-09-11T01:02:36.815Z,87.70
2017-09-11T01:05:04.808Z,87.40
2017-09-11T01:07:31.862Z,87.30
2017-09-11T01:09:58.800Z,87.00
2017-09-11T01:12:25.805Z,86.60
2017-09-11T01:14:53.527Z,86.40
2017-09-11T01:17:20.029Z,86.60
2017-09-11T01:19:47.081Z,87.00
2017-09-11T01:22:14.257Z,86.90
2017-09-11T01:24:40.679Z,86.90
2017-09-11T01:27:07.751Z,86.70
2017-09-11T01:29:34.796Z,86.80
2017-09-11T01:32:01.877Z,86.60
2017-09-11T01:34:28.973Z,87.70
2017-09-11T01:36:56.730Z,86.80
2017-09-11T01:39:23.936Z,87.80
2017-09-11T01:41:51.932Z,87.20
2017-09-11T01:44:18.453Z,87.20
2017-09-11T01:46:44.863Z,87.00
2017-09-11T01:49:12.152Z,87.00
2017-09-11T01:51:39.662Z,87.10
2017-09-11T01:54:06.815Z,87.60
2017-09-11T01:56:34.654Z,88.00
2017-09-11T01:59:01.058Z,87.80
2017-09-11T02:01:27.452Z,87.50
2017-09-11T02:03:53.867Z,87.40
2017-09-11T02:06:20.953Z,87.30
2017-09-11T02:08:48.114Z,86.90
2017-09-11T02:11:15.288Z,86.80
2017-09-11T02:13:42.429Z,87.00
2017-09-11T02:16:10.289Z,87.00
2017-09-11T02:18:37.412Z,87.00
2017-09-11T02:21:04.339Z,87.80
2017-09-11T02:23:30.741Z,87.30
2017-09-11T02:25:58.469Z,88.60
2017-09-11T02:28:24.831Z,88.10
2017-09-11T02:30:52.367Z,88.70
2017-09-11T02:33:19.526Z,88.20
2017-09-11T02:35:46.638Z,88.40
2017-09-11T02:38:13.777Z,89.00
2017-09-11T02:40:40.879Z,89.60
2017-09-11T02:43:08.433Z,89.60
2017-09-11T02:45:35.611Z,88.40
2017-09-11T02:48:01.962Z,88.30
2017-09-11T02:50:28.466Z,88.90
2017-09-11T02:52:54.881Z,88.50
2017-09-11T02:55:21.309Z,88.30
2017-09-11T02:57:48.709Z,88.70
2017-09-11T03:00:15.887Z,88.70
2017-09-11T03:02:42.378Z,89.10
2017-09-11T03:05:09.655Z,88.80
2017-09-11T03:07:37.505Z,89.10
2017-09-11T03:10:03.902Z,88.90
2017-09-11T03:12:30.386Z,88.60
2017-09-11T03:14:57.456Z,89.90
2017-09-11T03:17:23.854Z,90.30
2017-09-11T03:19:51.029Z,91.40
2017-09-11T03:22:17.514Z,91.40
2017-09-11T03:24:43.870Z,89.90
2017-09-11T03:27:10.326Z,89.40
2017-09-11T03:29:37.777Z,89.20
2017-09-11T03:32:06.400Z,88.80
2017-09-11T03:34:33.475Z,88.70
2017-09-11T03:37:00.600Z,89.00
2017-09-11T03:39:27.018Z,89.30
2017-09-11T03:41:54.852Z,89.50
2017-09-11T03:44:21.252Z,89.50
2017-09-11T03:46:47.689Z,89.00
2017-09-11T03:49:14.707Z,89.60
2017-09-11T03:51:41.139Z,89.80
2017-09-11T03:54:07.503Z,89.50
2017-09-11T03:56:34.640Z,91.70
2017-09-11T03:59:01.781Z,91.70
2017-09-11T04:01:29.118Z,91.70
2017-09-11T04:03:55.478Z,91.50
2017-09-11T04:06:22.715Z,91.20
2017-09-11T04:08:49.069Z,89.60
2017-09-11T04:11:15.552Z,90.20
2017-09-11T04:13:42.438Z,91.40
2017-09-11T04:16:10.567Z,92.50
2017-09-11T04:18:36.967Z,90.80
2017-09-11T04:21:03.323Z,90.80
2017-09-11T04:23:30.546Z,92.00
2017-09-11T04:25:58.124Z,91.40
2017-09-11T04:28:25.067Z,90.40
2017-09-11T04:30:52.183Z,90.90
2017-09-11T04:33:19.126Z,91.00
2017-09-11T04:35:46.640Z,91.10
2017-09-11T04:38:13.001Z,90.80
2017-09-11T04:40:40.856Z,91.30
2017-09-11T04:43:07.889Z,90.80
2017-09-11T04:45:35.966Z,91.00
2017-09-11T04:48:02.476Z,91.20
2017-09-11T04:50:28.855Z,91.10
2017-09-11T04:52:55.246Z,91.20
2017-09-11T04:55:22.277Z,92.10
2017-09-11T04:57:50.495Z,91.20
2017-09-11T05:00:18.017Z,91.20
2017-09-11T05:02:45.115Z,91.20
2017-09-11T05:05:11.520Z,91.30
2017-09-11T05:07:41.215Z,90.90
2017-09-11T05:10:08.433Z,90.90
2017-09-11T05:12:34.800Z,91.40
2017-09-11T05:15:01.679Z,90.20
2017-09-11T05:17:30.192Z,90.30
2017-09-11T05:19:57.289Z,90.40
2017-09-11T05:22:23.677Z,90.40
2017-09-11T05:24:50.840Z,91.10
2017-09-11T05:27:17.208Z,90.20
2017-09-11T05:29:43.639Z,90.20
2017-09-11T05:32:10.615Z,89.80
2017-09-11T05:34:38.045Z,89.80
2017-09-11T05:37:05.037Z,89.80
2017-09-11T05:39:33.101Z,89.60
2017-09-11T05:42:01.639Z,89.40
2017-09-11T05:44:28.060Z,89.40
2017-09-11T05:46:55.624Z,89.20
2017-09-11T05:49:22.088Z,89.20
2017-09-11T05:51:48.731Z,89.30
2017-09-11T05:54:15.799Z,89.00
2017-09-11T05:56:43.193Z,89.00
2017-09-11T05:59:10.338Z,88.80
2017-09-11T06:01:37.472Z,89.90
2017-09-11T06:04:03.875Z,88.90
2017-09-11T06:06:31.120Z,88.70
2017-09-11T06:08:58.277Z,88.40
2017-09-11T06:11:24.627Z,87.90
2017-09-11T06:13:52.002Z,87.90
2017-09-11T06:16:19.372Z,88.20
2017-09-11T06:18:46.673Z,88.50
2017-09-11T06:21:15.155Z,88.80
2017-09-11T06:23:42.972Z,89.50
2017-09-11T06:26:09.376Z,89.40
2017-09-11T06:28:36.849Z,89.20
2017-09-11T06:31:03.278Z,88.90
2017-09-11T06:33:31.045Z,89.00
2017-09-11T06:36:00.498Z,89.00
2017-09-11T06:38:27.008Z,89.00
2017-09-11T06:40:54.337Z,88.80
2017-09-11T06:43:22.266Z,88.50
2017-09-11T06:45:49.361Z,88.70
2017-09-11T06:48:17.280Z,89.40
2017-09-11T06:50:44.640Z,88.60
2017-09-11T06:53:11.712Z,88.30
2017-09-11T06:55:38.862Z,88.00
2017-09-11T06:58:05.274Z,87.30
2017-09-11T07:00:31.706Z,87.20
2017-09-11T07:02:58.127Z,86.80
2017-09-11T07:05:25.951Z,85.60
2017-09-11T07:07:52.309Z,85.60
2017-09-11T07:10:19.478Z,86.20
2017-09-11T07:16:19.743Z,84.80
2017-09-11T07:18:46.212Z,84.70
2017-09-11T07:21:13.446Z,85.30
2017-09-11T07:23:39.820Z,85.40
2017-09-11T07:26:06.738Z,85.10
2017-09-11T07:28:34.413Z,85.10
2017-09-11T07:31:01.405Z,84.60
2017-09-11T07:33:29.400Z,84.10
2017-09-11T07:35:57.272Z,84.00
2017-09-11T07:38:23.653Z,82.50
2017-09-11T07:40:50.798Z,81.20
2017-09-11T07:43:19.834Z,82.90
2017-09-11T07:45:47.036Z,82.60
2017-09-11T07:48:14.609Z,82.40
2017-09-11T07:50:42.187Z,81.70
2017-09-11T07:53:09.318Z,80.80
2017-09-11T07:55:36.503Z,81.20
2017-09-11T07:58:02.921Z,81.70
2017-09-11T08:00:29.927Z,80.80
2017-09-11T08:02:57.952Z,80.90
2017-09-11T08:05:25.211Z,81.00
2017-09-11T08:07:51.622Z,81.90
2017-09-11T08:10:18.053Z,80.80
2017-09-11T08:12:45.592Z,81.10
2017-09-11T08:15:12.718Z,80.40
2017-09-11T08:17:39.793Z,80.30
2017-09-11T08:20:06.239Z,79.70
2017-09-11T08:22:33.493Z,77.80
2017-09-11T08:25:00.610Z,78.10
2017-09-11T08:27:27.131Z,78.10
2017-09-11T08:29:54.010Z,78.80
2017-09-11T08:32:22.015Z,78.50
2017-09-11T08:34:49.742Z,78.80
2017-09-11T08:37:16.891Z,78.00
2017-09-11T08:39:43.281Z,76.60
2017-09-11T08:42:11.307Z,77.40
2017-09-11T08:44:38.948Z,77.30
2017-09-11T08:47:05.395Z,75.10
2017-09-11T08:49:32.604Z,72.10
2017-09-11T08:52:00.235Z,72.60
2017-09-11T08:54:27.129Z,74.90
2017-09-11T08:56:54.332Z,74.80
2017-09-11T08:59:20.767Z,74.30
2017-09-11T09:01:50.929Z,74.20
2017-09-11T09:04:17.288Z,75.20
2017-09-11T09:06:45.882Z,74.20
2017-09-11T09:09:16.025Z,74.20
2017-09-11T09:11:43.220Z,73.90
2017-09-11T09:14:09.617Z,74.20
2017-09-11T09:16:36.864Z,71.70
2017-09-11T09:19:03.918Z,69.70
2017-09-11T09:21:31.007Z,70.40
2017-09-11T09:23:57.403Z,71.20
2017-09-11T09:26:25.687Z,71.10
2017-09-11T09:28:52.698Z,71.10
2017-09-11T09:31:19.077Z,70.60
2017-09-11T09:33:47.029Z,71.50
2017-09-11T09:36:14.756Z,71.80
2017-09-11T09:38:41.747Z,71.60
2017-09-11T09:41:10.313Z,69.00
2017-09-11T09:43:37.347Z,68.50
2017-09-11T09:46:03.752Z,70.20
2017-09-11T09:48:30.938Z,71.00
2017-09-11T09:50:58.069Z,68.70
2017-09-11T09:53:24.443Z,67.90
2017-09-11T09:55:50.879Z,69.10
2017-09-11T09:58:18.498Z,67.30
2017-09-11T10:00:45.897Z,68.80
2017-09-11T10:03:12.269Z,67.70
2017-09-11T10:05:39.502Z,66.60
2017-09-11T10:08:06.456Z,67.10
2017-09-11T10:10:32.971Z,68.30
2017-09-11T10:13:00.143Z,67.10
2017-09-11T10:15:26.557Z,67.00
2017-09-11T10:17:53.939Z,65.90
2017-09-11T10:20:20.334Z,65.90
2017-09-11T10:22:47.486Z,66.90
2017-09-11T10:25:13.898Z,66.80
2017-09-11T10:27:41.815Z,65.40
2017-09-11T10:30:09.839Z,63.50
2017-09-11T10:32:38.092Z,61.30
2017-09-11T10:35:06.188Z,61.20
2017-09-11T10:37:33.694Z,63.60
2017-09-11T10:40:00.860Z,64.30
2017-09-11T10:42:29.070Z,63.80
2017-09-11T10:44:56.701Z,62.40
2017-09-11T10:47:23.933Z,61.90
2017-09-11T10:49:53.550Z,63.30
2017-09-11T10:52:20.718Z,62.70
2017-09-11T10:54:48.873Z,62.50
2017-09-11T10:57:15.287Z,61.10
2017-09-11T10:59:42.587Z,58.30
2017-09-11T11:02:09.873Z,60.40
2017-09-11T11:04:36.229Z,61.10
2017-09-11T11:07:03.367Z,59.20
2017-09-11T11:09:30.664Z,58.30
2017-09-11T11:11:59.273Z,58.50
2017-09-11T11:14:27.387Z,59.80
2017-09-11T11:16:54.458Z,59.60
2017-09-11T11:19:20.958Z,59.70
2017-09-11T11:21:47.402Z,57.90
2017-09-11T11:24:14.458Z,58.20
2017-09-11T11:26:41.395Z,56.80
2017-09-11T11:29:09.285Z,57.00
2017-09-11T11:31:36.377Z,56.90
2017-09-11T11:34:03.504Z,55.60
2017-09-11T11:36:31.035Z,55.00
2017-09-11T11:38:58.218Z,51.80
2017-09-11T11:41:25.659Z,51.20
2017-09-11T11:43:52.599Z,54.20
2017-09-11T11:46:19.761Z,50.70
2017-09-11T11:48:47.817Z,52.40
2017-09-11T11:51:16.354Z,50.80
2017-09-11T11:53:43.315Z,50.80
2017-09-11T11:56:10.436Z,52.40
2017-09-11T11:58:38.609Z,52.50
2017-09-11T12:01:05.164Z,51.90
2017-09-11T12:03:32.601Z,50.90
2017-09-11T12:06:00.736Z,53.70
2017-09-11T12:08:27.891Z,53.00
2017-09-11T12:10:55.126Z,53.80
2017-09-11T12:13:21.530Z,54.60
2017-09-11T12:15:49.256Z,54.10
2017-09-11T12:18:16.541Z,54.10
2017-09-11T12:20:45.790Z,54.30
2017-09-11T12:23:13.688Z,54.20
2017-09-11T12:25:41.033Z,54.40
2017-09-11T12:28:10.091Z,54.30
2017-09-11T12:30:38.712Z,55.50
2017-09-11T12:33:05.774Z,55.40
2017-09-11T12:35:33.025Z,56.90
2017-09-11T12:38:00.311Z,56.70
2017-09-11T12:40:28.341Z,56.50
2017-09-11T12:42:55.574Z,56.70
2017-09-11T12:45:23.404Z,57.30
2017-09-11T12:47:51.205Z,57.20
2017-09-11T12:50:22.956Z,57.30
2017-09-11T12:52:50.106Z,58.50
2017-09-11T12:55:16.581Z,58.10
2017-09-11T12:57:43.147Z,59.30
2017-09-11T13:00:12.359Z,60.30
2017-09-11T13:02:42.480Z,60.20
2017-09-11T13:05:15.147Z,60.00
2017-09-11T13:07:46.671Z,60.30
2017-09-11T13:10:21.396Z,58.60
2017-09-11T13:12:51.480Z,58.60
2017-09-11T13:15:20.872Z,58.60
2017-09-11T13:17:49.420Z,58.80
2017-09-11T13:20:19.298Z,58.70
2017-09-11T13:22:45.698Z,58.60
2017-09-11T13:25:12.758Z,59.00
2017-09-11T13:27:39.984Z,58.90
2017-09-11T13:30:07.794Z,58.50
2017-09-11T13:32:35.466Z,58.00
2017-09-11T13:35:03.282Z,59.00
2017-09-11T13:37:31.750Z,59.90
2017-09-11T13:39:58.945Z,59.10
2017-09-11T13:42:26.227Z,59.20
2017-09-11T13:44:55.428Z,59.50
2017-09-11T13:47:22.661Z,59.50
2017-09-11T13:49:54.007Z,59.40
2017-09-11T13:52:25.845Z,58.70
2017-09-11T13:54:55.740Z,59.50
2017-09-11T13:57:27.779Z,59.40
2017-09-11T13:59:54.322Z,60.50
2017-09-11T14:02:21.349Z,58.80
2017-09-11T14:04:48.515Z,59.40
2017-09-11T14:07:15.907Z,59.90
2017-09-11T14:09:43.098Z,60.50
2017-09-11T14:12:11.302Z,60.30
2017-09-11T14:14:38.499Z,60.20
2017-09-11T14:17:04.870Z,61.10
2017-09-11T14:19:33.089Z,62.10
2017-09-11T14:21:59.470Z,62.10
2017-09-11T14:24:26.567Z,62.10
2017-09-11T14:26:53.650Z,62.40
2017-09-11T14:29:20.010Z,62.60
2017-09-11T14:31:47.243Z,63.20
2017-09-11T14:34:14.213Z,62.40
2017-09-11T14:36:42.253Z,62.20
2017-09-11T14:39:08.651Z,61.30
2017-09-11T14:41:37.548Z,64.40
2017-09-11T14:44:05.286Z,65.10
2017-09-11T14:46:32.535Z,65.10
2017-09-11T14:49:00.098Z,65.50
2017-09-11T14:51:26.620Z,65.80
2017-09-11T14:53:53.030Z,65.90
2017-09-11T14:56:19.581Z,66.50
2017-09-11T14:58:46.639Z,67.60
2017-09-11T15:01:13.822Z,67.90
2017-09-11T15:03:40.173Z,67.80
2017-09-11T15:06:07.304Z,68.10
2017-09-11T15:08:34.570Z,68.10
2017-09-11T15:11:01.094Z,67.90
2017-09-11T15:13:28.318Z,68.50
2017-09-11T15:15:54.755Z,68.80
2017-09-11T15:18:22.647Z,70.40
2017-09-11T15:20:50.538Z,70.40
2017-09-11T15:23:16.894Z,69.40
2017-09-11T15:25:43.249Z,69.20
2017-09-11T15:28:09.671Z,69.80
2017-09-11T15:30:36.690Z,69.30
2017-09-11T15:33:04.286Z,69.60
2017-09-11T15:35:32.041Z,69.50
2017-09-11T15:37:58.459Z,68.80
2017-09-11T15:40:26.470Z,69.30
2017-09-11T15:42:54.114Z,69.20
2017-09-11T15:45:21.503Z,69.50
2017-09-11T15:47:48.220Z,70.00
2017-09-11T15:50:14.740Z,70.00
2017-09-11T15:52:42.306Z,70.70
2017-09-11T15:55:08.749Z,71.10
2017-09-11T15:57:35.821Z,71.30
2017-09-11T16:00:03.203Z,70.30
2017-09-11T16:02:29.590Z,70.30
2017-09-11T16:04:55.969Z,69.40
2017-09-11T16:07:23.001Z,69.00
2017-09-11T16:09:50.006Z,69.10
2017-09-11T16:12:17.792Z,69.00
2017-09-11T16:14:44.974Z,69.40
2017-09-11T16:17:11.394Z,69.40
2017-09-11T16:19:37.852Z,69.60
2017-09-11T16:22:04.256Z,69.90
2017-09-11T16:24:32.367Z,71.30
2017-09-11T16:26:59.905Z,71.30
2017-09-11T16:29:26.899Z,73.10
2017-09-11T16:31:54.152Z,73.50
2017-09-11T16:34:21.314Z,73.90
2017-09-11T16:36:48.570Z,73.60
2017-09-11T16:39:15.089Z,73.30
2017-09-11T16:41:42.093Z,74.30
2017-09-11T16:44:09.241Z,74.60
2017-09-11T16:46:35.731Z,74.50
2017-09-11T16:49:02.159Z,75.70
2017-09-11T16:51:29.430Z,75.80
2017-09-11T16:53:55.873Z,76.40
2017-09-11T16:56:23.286Z,76.90
2017-09-11T16:58:50.499Z,75.80
2017-09-11T17:01:17.852Z,75.90
2017-09-11T17:03:45.652Z,76.80
2017-09-11T17:06:13.594Z,75.90
2017-09-11T17:08:41.490Z,75.90
2017-09-11T17:11:08.863Z,75.40
2017-09-11T17:13:35.247Z,76.70
2017-09-11T17:16:02.622Z,76.40
2017-09-11T17:18:29.866Z,77.40
2017-09-11T17:20:57.071Z,78.40
2017-09-11T17:23:23.473Z,80.30
2017-09-11T17:25:49.938Z,79.60
2017-09-11T17:28:17.332Z,79.00
2017-09-11T17:30:44.541Z,78.30
2017-09-11T17:33:11.771Z,78.50
2017-09-11T17:35:39.275Z,78.20
2017-09-11T17:38:06.640Z,79.20
2017-09-11T17:40:33.953Z,78.00
2017-09-11T17:43:01.440Z,79.20
2017-09-11T17:45:28.906Z,78.20
2017-09-11T17:47:56.212Z,78.90
2017-09-11T17:50:24.109Z,78.30
2017-09-11T17:52:50.819Z,78.40
2017-09-11T17:55:18.697Z,80.50
2017-09-11T17:57:45.923Z,80.10
2017-09-11T18:00:12.362Z,80.30
2017-09-11T18:02:38.783Z,79.10
2017-09-11T18:05:05.158Z,79.10
2017-09-11T18:07:32.225Z,78.90
2017-09-11T18:10:00.084Z,79.80
2017-09-11T18:12:28.086Z,80.90
2017-09-11T18:14:55.224Z,80.40
2017-09-11T18:17:22.390Z,78.90
2017-09-11T18:19:50.425Z,79.50
2017-09-11T18:22:16.833Z,79.40
2017-09-11T18:24:43.194Z,78.70
2017-09-11T18:27:10.156Z,79.50
2017-09-11T18:29:37.930Z,79.90
2017-09-11T18:32:05.344Z,80.20
2017-09-11T18:34:32.302Z,80.90
2017-09-11T18:37:00.731Z,80.00
2017-09-11T18:39:27.489Z,80.50
2017-09-11T18:41:55.255Z,81.10
2017-09-11T18:44:22.394Z,81.60
2017-09-11T18:46:48.794Z,81.80
2017-09-11T18:49:15.189Z,81.20
2017-09-11T18:51:43.153Z,82.00
2017-09-11T18:54:11.300Z,82.40
2017-09-11T18:56:37.680Z,83.20
2017-09-11T18:59:04.885Z,83.70
2017-09-11T19:01:31.367Z,83.60
2017-09-11T19:03:59.198Z,82.70
2017-09-11T19:06:26.490Z,82.80
2017-09-11T19:08:52.945Z,83.50
2017-09-11T19:11:20.776Z,84.20
2017-09-11T19:13:47.146Z,84.30
2017-09-11T19:16:14.516Z,85.50
2017-09-11T19:18:40.883Z,84.60
2017-09-11T19:21:07.326Z,84.20
2017-09-11T19:23:34.595Z,84.40
2017-09-11T19:26:01.852Z,85.20
2017-09-11T19:28:29.587Z,86.20
2017-09-11T19:30:56.007Z,87.00
2017-09-11T19:33:23.990Z,87.20
2017-09-11T19:35:51.938Z,86.70
2017-09-11T19:38:19.121Z,85.70
2017-09-11T19:40:47.111Z,85.10
2017-09-11T19:43:15.902Z,85.10
2017-09-11T19:45:44.053Z,84.20
2017-09-11T19:48:11.466Z,86.40
2017-09-11T19:50:38.697Z,86.30
2017-09-11T19:53:05.224Z,86.40
2017-09-11T19:55:32.388Z,84.90
2017-09-11T19:57:58.844Z,85.20
2017-09-11T20:00:26.079Z,86.00
2017-09-11T20:02:53.167Z,86.10
2017-09-11T20:05:22.254Z,85.50
2017-09-11T20:07:48.754Z,85.40
2017-09-11T20:10:16.671Z,86.00
2017-09-11T20:12:43.101Z,86.00
2017-09-11T20:15:09.542Z,85.30
2017-09-11T20:17:36.714Z,85.20
2017-09-11T20:20:03.114Z,86.40
2017-09-11T20:22:29.985Z,87.50
2017-09-11T20:24:57.272Z,86.30
2017-09-11T20:27:24.410Z,85.70
2017-09-11T20:29:50.809Z,85.00
2017-09-11T20:32:17.941Z,84.50
2017-09-11T20:34:46.231Z,85.40
2017-09-11T20:37:14.148Z,84.90
2017-09-11T20:39:41.300Z,85.00
2017-09-11T20:42:08.246Z,86.20
2017-09-11T20:44:34.616Z,85.50
2017-09-11T20:47:02.126Z,85.40
2017-09-11T20:49:28.697Z,85.30
2017-09-11T20:51:56.051Z,85.50
2017-09-11T20:54:23.298Z,86.40
2017-09-11T20:56:50.517Z,87.50
2017-09-11T20:59:17.627Z,86.20
2017-09-11T21:01:44.026Z,86.30
2017-09-11T21:04:11.242Z,85.40
2017-09-11T21:06:38.533Z,85.40
2017-09-11T21:09:07.148Z,87.10
2017-09-11T21:11:35.047Z,87.10
2017-09-11T21:14:01.403Z,87.60
2017-09-11T21:16:27.763Z,86.60
2017-09-11T21:18:55.940Z,85.80
2017-09-11T21:21:23.069Z,86.20
2017-09-11T21:23:49.415Z,86.30
2017-09-11T21:26:15.897Z,87.70
2017-09-11T21:28:43.191Z,87.50
2017-09-11T21:31:09.568Z,88.40
2017-09-11T21:33:37.594Z,86.80
2017-09-11T21:36:04.658Z,86.90
2017-09-11T21:38:31.034Z,87.00
2017-09-11T21:40:59.138Z,86.10
2017-09-11T21:43:26.207Z,86.10
2017-09-11T21:45:54.160Z,86.10
2017-09-11T21:48:20.576Z,86.80
2017-09-11T21:50:48.553Z,86.20
2017-09-11T21:53:15.840Z,86.80
2017-09-11T21:55:42.320Z,86.90
2017-09-11T21:58:08.734Z,85.60
2017-09-11T22:00:35.885Z,86.70
2017-09-11T22:03:03.021Z,86.40
2017-09-11T22:05:29.515Z,87.30
2017-09-11T22:07:56.917Z,87.30
2017-09-11T22:10:24.102Z,88.50
2017-09-11T22:12:51.248Z,88.20
2017-09-11T22:15:17.647Z,87.40
2017-09-11T22:17:45.358Z,87.20
2017-09-11T22:20:12.954Z,87.30
2017-09-11T22:22:39.373Z,88.10
2017-09-11T22:25:05.773Z,87.30
2017-09-11T22:27:33.820Z,87.70
2017-09-11T22:30:01.710Z,87.10
2017-09-11T22:32:28.811Z,86.70
2017-09-11T22:34:55.868Z,86.70
2017-09-11T22:37:23.780Z,88.30
2017-09-11T22:39:50.938Z,87.80
2017-09-11T22:42:19.193Z,87.40
2017-09-11T22:44:46.435Z,87.40
2017-09-11T22:47:13.584Z,86.90
2017-09-11T22:49:39.994Z,86.30
2017-09-11T22:52:06.426Z,86.80
2017-09-11T22:54:32.823Z,87.20
2017-09-11T22:56:59.180Z,86.90
2017-09-11T22:59:26.475Z,86.60
2017-09-11T23:01:52.890Z,86.60
2017-09-11T23:04:19.284Z,86.20
2017-09-11T23:06:46.478Z,86.10
2017-09-11T23:09:13.358Z,86.40
2017-09-11T23:11:40.462Z,86.00
2017-09-11T23:14:08.337Z,85.70
2017-09-11T23:16:35.458Z,85.80
2017-09-11T23:19:01.826Z,85.80
2017-09-11T23:21:29.901Z,86.40
2017-09-11T23:23:58.381Z,86.80
2017-09-11T23:26:25.494Z,87.50
2017-09-11T23:28:51.852Z,87.60
2017-09-11T23:31:18.293Z,87.30
2017-09-11T23:33:45.317Z,87.20
2017-09-11T23:36:12.475Z,87.10
2017-09-11T23:38:38.875Z,87.50
2017-09-11T23:41:07.040Z,86.90
2017-09-11T23:43:35.877Z,88.30
2017-09-11T23:46:02.277Z,88.20
2017-09-11T23:48:29.390Z,87.00
2017-09-11T23:50:55.821Z,87.00
2017-09-11T23:53:22.221Z,87.20
2017-09-11T23:55:48.748Z,87.70
2017-09-11T23:58:15.928Z,87.10
